createdAt,value
2019-01-30T00:01:37.882Z,7.83
2019-01-30T00:04:06.544Z,7.07
2019-01-30T00:06:35.070Z,6.40
2019-01-30T00:09:05.108Z,5.90
2019-01-30T00:11:34.470Z,7.20
2019-01-30T00:14:02.975Z,8.17
2019-01-30T00:16:31.716Z,7.27
2019-01-30T00:19:00.435Z,6.57
2019-01-30T00:21:28.899Z,6.80
2019-01-30T00:23:58.139Z,6.93
2019-01-30T00:26:26.597Z,6.80
2019-01-30T00:28:55.327Z,7.70
2019-01-30T00:31:24.066Z,7.27
2019-01-30T00:33:52.511Z,6.50
2019-01-30T00:36:21.341Z,7.33
2019-01-30T00:38:50.105Z,7.17
2019-01-30T00:41:18.563Z,7.37
2019-01-30T00:44:07.687Z,6.43
2019-01-30T00:46:36.485Z,7.50
2019-01-30T00:49:05.330Z,5.57
2019-01-30T00:51:35.232Z,6.73
2019-01-30T00:54:03.810Z,7.37
2019-01-30T00:56:33.185Z,6.47
2019-01-30T00:59:01.735Z,6.93
2019-01-30T01:01:30.315Z,7.27
2019-01-30T01:03:58.826Z,6.20
2019-01-30T01:06:29.108Z,6.90
2019-01-30T01:08:57.561Z,7.10
2019-01-30T01:11:26.263Z,6.80
2019-01-30T01:13:56.281Z,6.47
2019-01-30T01:16:24.812Z,8.00
2019-01-30T01:18:53.575Z,7.27
2019-01-30T01:21:22.341Z,6.77
2019-01-30T01:23:51.705Z,7.53
2019-01-30T01:26:20.190Z,7.10
2019-01-30T01:28:48.835Z,7.47
2019-01-30T01:31:17.551Z,7.50
2019-01-30T01:33:46.326Z,7.40
2019-01-30T01:36:15.125Z,7.40
2019-01-30T01:38:43.931Z,7.50
2019-01-30T01:41:12.693Z,6.47
2019-01-30T01:43:43.307Z,7.70
2019-01-30T01:46:11.909Z,7.50
2019-01-30T01:48:40.487Z,6.93
2019-01-30T01:51:11.965Z,6.27
2019-01-30T01:53:40.696Z,5.67
2019-01-30T01:56:09.595Z,8.03
2019-01-30T01:58:38.225Z,7.73
2019-01-30T02:01:08.133Z,6.23
2019-01-30T02:03:36.857Z,5.70
2019-01-30T02:06:05.748Z,8.13
2019-01-30T02:08:34.593Z,7.73
2019-01-30T02:11:03.473Z,7.27
2019-01-30T02:13:32.309Z,7.13
2019-01-30T02:16:01.296Z,7.03
2019-01-30T02:18:30.043Z,6.57
2019-01-30T02:20:58.598Z,6.00
2019-01-30T02:23:27.409Z,8.07
2019-01-30T02:25:55.864Z,7.23
2019-01-30T02:28:24.580Z,7.23
2019-01-30T02:30:53.318Z,6.50
2019-01-30T02:33:22.085Z,6.60
2019-01-30T02:35:50.617Z,5.97
2019-01-30T02:38:19.467Z,7.07
2019-01-30T02:40:48.061Z,7.33
2019-01-30T02:43:16.837Z,7.23
2019-01-30T02:45:45.699Z,7.63
2019-01-30T02:48:14.472Z,7.60
2019-01-30T02:50:42.926Z,7.20
2019-01-30T02:53:11.769Z,7.87
2019-01-30T02:55:42.138Z,8.43
2019-01-30T02:58:10.862Z,7.33
2019-01-30T03:00:39.624Z,7.63
2019-01-30T03:03:08.372Z,7.63
2019-01-30T03:05:37.296Z,8.27
2019-01-30T03:08:05.994Z,7.27
2019-01-30T03:10:34.457Z,8.83
2019-01-30T03:13:02.899Z,7.67
2019-01-30T03:15:33.225Z,8.50
2019-01-30T03:18:05.045Z,8.43
2019-01-30T03:20:33.815Z,7.93
2019-01-30T03:23:02.317Z,9.03
2019-01-30T03:25:31.042Z,7.93
2019-01-30T03:27:59.805Z,9.20
2019-01-30T03:30:30.967Z,10.43
2019-01-30T03:33:01.305Z,9.80
2019-01-30T03:35:30.047Z,10.53
2019-01-30T03:37:58.575Z,10.17
2019-01-30T03:40:27.042Z,11.17
2019-01-30T03:42:55.501Z,10.20
2019-01-30T03:45:24.801Z,11.63
2019-01-30T03:47:53.671Z,11.50
2019-01-30T03:50:22.567Z,9.30
2019-01-30T03:52:51.495Z,12.17
2019-01-30T03:55:21.402Z,12.33
2019-01-30T03:57:50.357Z,10.90
2019-01-30T04:00:26.516Z,13.43
2019-01-30T04:02:55.144Z,14.43
2019-01-30T04:05:24.010Z,11.97
2019-01-30T04:07:52.665Z,14.10
2019-01-30T04:10:24.634Z,13.90
2019-01-30T04:12:53.444Z,12.80
2019-01-30T04:15:24.090Z,12.33
2019-01-30T04:17:52.904Z,13.30
2019-01-30T04:20:22.114Z,13.27
2019-01-30T04:22:50.682Z,13.00
2019-01-30T04:25:19.625Z,12.60
2019-01-30T04:27:48.747Z,13.60
2019-01-30T04:30:20.652Z,14.30
2019-01-30T04:32:49.193Z,13.67
2019-01-30T04:35:17.748Z,14.50
2019-01-30T04:37:46.276Z,13.93
2019-01-30T04:40:16.996Z,13.60
2019-01-30T04:42:45.588Z,13.87
2019-01-30T04:45:19.436Z,13.17
2019-01-30T04:47:48.252Z,13.73
2019-01-30T04:50:17.154Z,13.50
2019-01-30T04:52:45.759Z,14.37
2019-01-30T04:55:16.028Z,14.27
2019-01-30T04:57:44.742Z,14.03
2019-01-30T05:00:16.791Z,14.10
2019-01-30T05:02:45.274Z,14.60
2019-01-30T05:05:14.146Z,14.37
2019-01-30T05:07:42.989Z,13.83
2019-01-30T05:10:13.614Z,14.30
2019-01-30T05:12:43.797Z,14.50
2019-01-30T05:15:18.131Z,14.13
2019-01-30T05:17:46.932Z,14.87
2019-01-30T05:20:17.458Z,13.87
2019-01-30T05:22:46.074Z,14.73
2019-01-30T05:25:15.192Z,14.37
2019-01-30T05:27:43.826Z,13.67
2019-01-30T05:30:15.913Z,12.93
2019-01-30T05:32:44.460Z,13.93
2019-01-30T05:35:13.279Z,14.43
2019-01-30T05:37:41.822Z,14.50
2019-01-30T05:40:13.290Z,13.53
2019-01-30T05:42:41.854Z,14.53
2019-01-30T05:45:13.207Z,14.13
2019-01-30T05:47:42.014Z,14.43
2019-01-30T05:50:11.313Z,15.50
2019-01-30T05:52:40.144Z,14.53
2019-01-30T05:55:10.950Z,13.97
2019-01-30T05:57:39.505Z,13.60
2019-01-30T06:00:25.755Z,14.10
2019-01-30T06:02:54.562Z,14.27
2019-01-30T06:05:30.180Z,12.53
2019-01-30T06:07:59.800Z,13.03
2019-01-30T06:10:28.398Z,13.33
2019-01-30T06:12:58.582Z,13.43
2019-01-30T06:15:27.418Z,14.30
2019-01-30T06:17:56.223Z,15.17
2019-01-30T06:20:27.231Z,14.60
2019-01-30T06:22:56.860Z,13.27
2019-01-30T06:25:25.729Z,14.40
2019-01-30T06:27:54.612Z,13.77
2019-01-30T06:30:25.030Z,14.00
2019-01-30T06:32:55.135Z,14.50
2019-01-30T06:35:23.756Z,13.80
2019-01-30T06:37:52.433Z,13.23
2019-01-30T06:40:23.535Z,13.63
2019-01-30T06:42:52.000Z,14.23
2019-01-30T06:45:20.635Z,14.43
2019-01-30T06:47:49.096Z,14.47
2019-01-30T06:50:22.158Z,13.43
2019-01-30T06:52:50.625Z,14.30
2019-01-30T06:55:19.096Z,14.23
2019-01-30T06:57:47.877Z,13.33
2019-01-30T07:00:18.989Z,12.90
2019-01-30T07:02:47.770Z,13.00
2019-01-30T07:05:20.363Z,10.67
2019-01-30T07:07:48.939Z,12.20
2019-01-30T07:10:23.137Z,12.77
2019-01-30T07:12:52.133Z,13.00
2019-01-30T07:15:20.995Z,13.90
2019-01-30T07:17:49.851Z,11.93
2019-01-30T07:20:18.917Z,14.17
2019-01-30T07:22:47.829Z,13.10
2019-01-30T07:25:21.269Z,9.47
2019-01-30T07:27:51.029Z,11.70
2019-01-30T07:30:28.413Z,12.73
2019-01-30T07:32:57.107Z,14.03
2019-01-30T07:35:25.989Z,12.37
2019-01-30T07:37:54.853Z,13.63
2019-01-30T07:40:23.765Z,18.60
2019-01-30T07:42:52.595Z,15.90
2019-01-30T07:45:33.265Z,14.13
2019-01-30T07:48:01.795Z,15.37
2019-01-30T07:50:31.619Z,14.17
2019-01-30T07:53:00.193Z,14.07
2019-01-30T07:55:29.025Z,16.00
2019-01-30T07:57:59.437Z,18.73
2019-01-30T08:00:29.921Z,18.53
2019-01-30T08:03:04.265Z,19.47
2019-01-30T08:05:32.917Z,17.70
2019-01-30T08:08:01.696Z,18.93
2019-01-30T08:10:30.631Z,15.93
2019-01-30T08:12:59.675Z,13.83
2019-01-30T08:15:28.548Z,14.87
2019-01-30T08:17:57.374Z,13.17
2019-01-30T08:20:25.865Z,13.60
2019-01-30T08:22:54.796Z,12.63
2019-01-30T08:25:26.259Z,14.23
2019-01-30T08:27:54.943Z,13.50
2019-01-30T08:30:49.749Z,13.37
2019-01-30T08:33:08.130Z,13.87
2019-01-30T08:35:36.908Z,12.90
2019-01-30T08:38:28.680Z,12.70
2019-01-30T08:40:59.937Z,13.23
2019-01-30T08:43:28.929Z,13.30
2019-01-30T08:45:57.541Z,13.80
2019-01-30T08:48:28.551Z,13.30
2019-01-30T08:50:56.667Z,13.70
2019-01-30T08:53:28.762Z,13.33
2019-01-30T08:55:57.701Z,14.07
2019-01-30T08:58:26.402Z,13.67
2019-01-30T09:00:54.978Z,14.50
2019-01-30T09:03:23.755Z,13.60
2019-01-30T09:05:52.319Z,13.53
2019-01-30T09:08:20.906Z,14.43
2019-01-30T09:10:49.795Z,13.30
2019-01-30T09:13:18.324Z,15.10
2019-01-30T09:15:47.149Z,15.00
2019-01-30T09:18:15.979Z,14.23
2019-01-30T09:20:44.830Z,14.93
2019-01-30T09:23:14.118Z,13.87
2019-01-30T09:25:42.599Z,13.37
2019-01-30T09:28:12.031Z,13.90
2019-01-30T09:30:40.598Z,13.87
2019-01-30T09:33:09.697Z,12.20
2019-01-30T09:35:38.920Z,13.13
2019-01-30T09:38:14.999Z,13.37
2019-01-30T09:40:43.820Z,12.07
2019-01-30T09:43:12.615Z,12.63
2019-01-30T09:45:42.322Z,12.23
2019-01-30T09:48:10.858Z,12.03
2019-01-30T09:50:39.827Z,11.37
2019-01-30T09:53:08.504Z,12.30
2019-01-30T09:55:37.389Z,11.93
2019-01-30T09:58:06.169Z,12.60
2019-01-30T10:00:38.960Z,12.27
2019-01-30T10:03:09.406Z,12.23
2019-01-30T10:05:38.798Z,11.13
2019-01-30T10:08:07.842Z,11.57
2019-01-30T10:10:42.364Z,11.13
2019-01-30T10:13:11.380Z,10.97
2019-01-30T10:15:49.594Z,11.07
2019-01-30T10:18:18.346Z,11.70
2019-01-30T10:20:47.760Z,11.80
2019-01-30T10:23:16.458Z,10.77
2019-01-30T10:25:45.308Z,11.90
2019-01-30T10:28:16.778Z,10.80
2019-01-30T10:30:48.771Z,10.23
2019-01-30T10:33:17.612Z,11.20
2019-01-30T10:35:46.554Z,11.23
2019-01-30T10:38:15.426Z,11.80
2019-01-30T10:40:43.978Z,11.27
2019-01-30T10:43:12.510Z,11.63
2019-01-30T10:45:41.355Z,11.13
2019-01-30T10:48:10.275Z,11.40
2019-01-30T10:50:38.892Z,10.77
2019-01-30T10:53:07.767Z,11.77
2019-01-30T10:55:37.068Z,11.00
2019-01-30T10:58:08.743Z,12.20
2019-01-30T11:00:40.726Z,10.13
2019-01-30T11:03:09.624Z,11.27
2019-01-30T11:05:38.453Z,10.67
2019-01-30T11:08:08.862Z,10.43
2019-01-30T11:10:39.338Z,11.93
2019-01-30T11:13:08.343Z,10.97
2019-01-30T11:15:37.222Z,11.27
2019-01-30T11:18:08.906Z,10.37
2019-01-30T11:20:38.421Z,11.67
2019-01-30T11:23:07.320Z,11.73
2019-01-30T11:25:41.382Z,11.60
2019-01-30T11:28:10.182Z,11.20
2019-01-30T11:30:38.900Z,11.40
2019-01-30T11:33:07.488Z,12.10
2019-01-30T11:35:36.367Z,11.13
2019-01-30T11:38:05.720Z,11.47
2019-01-30T11:40:34.350Z,12.50
2019-01-30T11:43:03.091Z,14.70
2019-01-30T11:45:34.217Z,13.90
2019-01-30T11:48:03.013Z,14.43
2019-01-30T11:50:31.622Z,14.87
2019-01-30T11:53:00.132Z,14.23
2019-01-30T11:55:29.034Z,13.40
2019-01-30T11:57:57.894Z,13.63
2019-01-30T12:00:33.131Z,14.43
2019-01-30T12:03:02.133Z,14.10
2019-01-30T12:05:30.743Z,14.37
2019-01-30T12:07:59.368Z,14.37
2019-01-30T12:10:28.195Z,13.60
2019-01-30T12:12:56.706Z,13.90
2019-01-30T12:15:38.586Z,13.53
2019-01-30T12:18:07.642Z,14.97
2019-01-30T12:20:36.535Z,15.70
2019-01-30T12:23:06.092Z,15.90
2019-01-30T12:25:35.021Z,15.77
2019-01-30T12:28:03.662Z,16.37
2019-01-30T12:30:32.509Z,15.90
2019-01-30T12:33:01.109Z,15.57
2019-01-30T12:35:32.923Z,17.17
2019-01-30T12:38:01.612Z,18.00
2019-01-30T12:40:30.672Z,18.10
2019-01-30T12:43:00.562Z,20.03
2019-01-30T12:45:31.255Z,19.27
2019-01-30T12:48:00.260Z,19.90
2019-01-30T12:50:29.715Z,20.87
2019-01-30T12:52:58.207Z,20.87
2019-01-30T12:55:29.322Z,21.30
2019-01-30T12:57:57.355Z,21.13
2019-01-30T13:00:28.713Z,21.57
2019-01-30T13:02:57.494Z,19.70
2019-01-30T13:05:26.843Z,21.30
2019-01-30T13:07:55.734Z,22.30
2019-01-30T13:10:24.339Z,22.87
2019-01-30T13:12:53.367Z,23.80
2019-01-30T13:15:27.476Z,26.70
2019-01-30T13:17:57.309Z,26.90
2019-01-30T13:20:25.923Z,25.27
2019-01-30T13:22:55.139Z,26.77
2019-01-30T13:25:31.397Z,26.43
2019-01-30T13:28:02.293Z,26.83
2019-01-30T13:30:35.817Z,26.83
2019-01-30T13:33:06.501Z,26.17
2019-01-30T13:35:35.113Z,28.70
2019-01-30T13:38:03.955Z,27.90
2019-01-30T13:40:34.840Z,25.97
2019-01-30T13:43:04.228Z,26.03
2019-01-30T13:45:32.767Z,27.37
2019-01-30T13:48:01.448Z,29.47
2019-01-30T13:50:30.918Z,27.90
2019-01-30T13:52:59.696Z,27.40
2019-01-30T13:55:28.415Z,27.90
2019-01-30T13:57:57.025Z,28.00
2019-01-30T14:00:28.281Z,29.77
2019-01-30T14:02:57.045Z,28.23
2019-01-30T14:05:25.501Z,28.47
2019-01-30T14:07:54.706Z,29.53
2019-01-30T14:10:23.323Z,29.80
2019-01-30T14:12:52.137Z,30.10
2019-01-30T14:15:23.632Z,28.63
2019-01-30T14:18:10.214Z,25.07
2019-01-30T14:20:38.753Z,28.23
2019-01-30T14:23:07.910Z,26.20
2019-01-30T14:25:36.718Z,24.63
2019-01-30T14:28:05.499Z,24.67
2019-01-30T14:30:35.842Z,24.57
2019-01-30T14:33:04.753Z,25.00
2019-01-30T14:35:34.914Z,24.00
2019-01-30T14:38:03.865Z,25.53
2019-01-30T14:40:32.708Z,28.27
2019-01-30T14:43:01.300Z,28.03
2019-01-30T14:45:35.996Z,25.77
2019-01-30T14:48:05.070Z,26.20
2019-01-30T14:50:33.672Z,27.67
2019-01-30T14:53:02.225Z,25.87
2019-01-30T14:55:30.838Z,23.80
2019-01-30T14:58:00.514Z,24.93
2019-01-30T15:00:35.841Z,27.10
2019-01-30T15:03:06.512Z,24.10
2019-01-30T15:05:37.143Z,24.80
2019-01-30T15:08:06.157Z,24.07
2019-01-30T15:10:35.530Z,25.83
2019-01-30T15:13:04.899Z,25.23
2019-01-30T15:15:33.446Z,26.13
2019-01-30T15:18:02.374Z,26.50
2019-01-30T15:20:33.365Z,24.30
2019-01-30T15:23:02.637Z,26.13
2019-01-30T15:25:31.835Z,26.17
2019-01-30T15:28:00.732Z,27.60
2019-01-30T15:30:38.072Z,28.60
2019-01-30T15:33:07.378Z,27.87
2019-01-30T15:35:36.307Z,27.20
2019-01-30T15:38:07.994Z,28.30
2019-01-30T15:40:36.481Z,28.03
2019-01-30T15:43:07.886Z,29.70
2019-01-30T15:45:37.367Z,27.50
2019-01-30T15:48:07.590Z,27.70
2019-01-30T15:50:39.161Z,28.73
2019-01-30T15:53:10.702Z,28.50
2019-01-30T15:55:39.693Z,28.30
2019-01-30T15:58:10.559Z,29.13
2019-01-30T16:00:47.786Z,28.63
2019-01-30T16:03:17.234Z,26.60
2019-01-30T16:05:45.844Z,28.57
2019-01-30T16:08:15.357Z,29.17
2019-01-30T16:10:51.268Z,28.60
2019-01-30T16:13:21.711Z,26.20
2019-01-30T16:15:53.833Z,26.67
2019-01-30T16:21:13.004Z,27.77
2019-01-30T16:24:31.186Z,53.17
2019-01-30T16:27:00.062Z,31.03
2019-01-30T16:29:28.512Z,28.53
2019-01-30T16:31:56.998Z,32.00
2019-01-30T16:34:37.755Z,30.67
2019-01-30T16:37:19.786Z,29.03
2019-01-30T16:39:59.015Z,30.50
2019-01-30T16:42:35.173Z,33.13
2019-01-30T16:45:07.226Z,53.23
2019-01-30T16:47:37.475Z,36.03
2019-01-30T16:50:09.567Z,28.90
2019-01-30T16:52:38.380Z,28.40
2019-01-30T16:55:09.458Z,28.20
2019-01-30T16:57:40.239Z,25.40
2019-01-30T17:00:20.465Z,28.60
2019-01-30T17:02:48.954Z,25.50
2019-01-30T17:05:18.882Z,25.67
2019-01-30T17:07:47.458Z,28.27
2019-01-30T17:10:18.128Z,25.67
2019-01-30T17:12:48.158Z,26.20
2019-01-30T17:15:20.007Z,26.30
2019-01-30T17:17:51.862Z,27.87
2019-01-30T17:20:25.701Z,27.93
2019-01-30T17:22:55.166Z,27.13
2019-01-30T17:25:25.506Z,26.10
2019-01-30T17:27:54.073Z,25.60
2019-01-30T17:30:31.318Z,24.23
2019-01-30T17:33:01.492Z,26.03
2019-01-30T17:35:30.293Z,24.70
2019-01-30T17:38:00.036Z,23.10
2019-01-30T17:40:29.800Z,20.93
2019-01-30T17:43:00.000Z,21.60
2019-01-30T17:45:29.986Z,21.90
2019-01-30T17:48:09.938Z,21.67
2019-01-30T17:50:38.542Z,20.93
2019-01-30T17:53:07.005Z,19.30
2019-01-30T17:55:35.548Z,21.63
2019-01-30T17:58:04.398Z,21.80
2019-01-30T18:00:46.904Z,21.93
2019-01-30T18:03:15.722Z,19.27
2019-01-30T18:05:44.909Z,20.00
2019-01-30T18:08:13.791Z,20.53
2019-01-30T18:10:42.643Z,21.87
2019-01-30T18:13:11.094Z,22.07
2019-01-30T18:15:39.640Z,20.80
2019-01-30T18:18:12.445Z,21.07
2019-01-30T18:20:41.429Z,20.37
2019-01-30T18:23:10.039Z,19.07
2019-01-30T18:25:38.578Z,20.73
2019-01-30T18:28:09.924Z,18.93
2019-01-30T18:30:38.381Z,17.67
2019-01-30T18:33:06.895Z,18.40
2019-01-30T18:35:35.724Z,18.27
2019-01-30T18:38:04.876Z,17.13
2019-01-30T18:40:33.591Z,16.10
2019-01-30T18:43:02.296Z,16.83
2019-01-30T18:45:30.793Z,14.73
2019-01-30T18:47:59.533Z,14.23
2019-01-30T18:50:29.212Z,13.97
2019-01-30T18:52:58.200Z,12.80
2019-01-30T18:55:27.001Z,13.07
2019-01-30T18:57:55.891Z,12.47
2019-01-30T19:00:29.408Z,13.93
2019-01-30T19:02:59.417Z,12.93
2019-01-30T19:05:29.641Z,13.17
2019-01-30T19:07:58.543Z,12.83
2019-01-30T19:10:27.029Z,12.63
2019-01-30T19:12:55.884Z,12.77
2019-01-30T19:15:29.654Z,11.87
2019-01-30T19:17:58.491Z,13.57
2019-01-30T19:20:36.133Z,13.70
2019-01-30T19:23:06.855Z,11.70
2019-01-30T19:25:35.142Z,12.90
2019-01-30T19:28:05.618Z,12.60
2019-01-30T19:30:34.210Z,11.90
2019-01-30T19:33:04.773Z,12.77
2019-01-30T19:35:33.517Z,13.30
2019-01-30T19:38:01.968Z,14.10
2019-01-30T19:40:30.504Z,16.17
2019-01-30T19:42:59.271Z,17.87
2019-01-30T19:45:28.369Z,19.20
2019-01-30T19:47:57.845Z,19.70
2019-01-30T19:50:28.922Z,19.50
2019-01-30T19:52:57.778Z,23.10
2019-01-30T19:55:26.550Z,19.57
2019-01-30T19:57:55.973Z,20.37
2019-01-30T20:00:30.061Z,21.57
2019-01-30T20:02:59.429Z,20.13
2019-01-30T20:05:28.043Z,19.93
2019-01-30T20:07:56.569Z,20.87
2019-01-30T20:10:27.932Z,20.23
2019-01-30T20:12:56.660Z,19.03
2019-01-30T20:15:25.651Z,19.03
2019-01-30T20:17:54.440Z,18.70
2019-01-30T20:20:23.061Z,17.90
2019-01-30T20:22:51.963Z,16.63
2019-01-30T20:25:26.245Z,15.30
2019-01-30T20:27:54.707Z,14.60
2019-01-30T20:30:24.636Z,14.87
2019-01-30T20:32:53.572Z,16.10
2019-01-30T20:35:22.605Z,15.70
2019-01-30T20:37:52.938Z,13.63
2019-01-30T20:40:30.389Z,15.90
2019-01-30T20:43:01.877Z,14.30
2019-01-30T20:45:33.782Z,15.73
2019-01-30T20:48:01.103Z,15.13
2019-01-30T20:50:31.709Z,16.17
2019-01-30T20:53:00.565Z,16.20
2019-01-30T20:55:29.453Z,24.87
2019-01-30T20:57:57.978Z,14.43
2019-01-30T21:00:35.085Z,14.47
2019-01-30T21:03:05.888Z,16.70
2019-01-30T21:05:36.297Z,17.37
2019-01-30T21:08:08.005Z,16.80
2019-01-30T21:10:40.581Z,21.43
2019-01-30T21:13:11.112Z,16.67
2019-01-30T21:15:39.868Z,15.67
2019-01-30T21:18:08.719Z,16.27
2019-01-30T21:20:37.513Z,14.80
2019-01-30T21:23:06.660Z,15.43
2019-01-30T21:25:35.173Z,16.03
2019-01-30T21:28:05.720Z,24.33
2019-01-30T21:30:38.865Z,15.13
2019-01-30T21:33:07.368Z,15.80
2019-01-30T21:35:37.720Z,16.00
2019-01-30T21:38:09.378Z,17.40
2019-01-30T21:40:41.520Z,17.17
2019-01-30T21:43:13.662Z,18.07
2019-01-30T21:45:42.203Z,17.63
2019-01-30T21:48:13.680Z,18.50
2019-01-30T21:50:43.882Z,18.47
2019-01-30T21:53:12.898Z,19.00
2019-01-30T21:55:45.949Z,20.13
2019-01-30T21:58:14.722Z,17.57
2019-01-30T22:00:47.761Z,19.97
2019-01-30T22:03:16.386Z,18.13
2019-01-30T22:05:45.514Z,18.10
2019-01-30T22:08:15.153Z,17.70
2019-01-30T22:10:44.197Z,19.83
2019-01-30T22:13:12.891Z,19.30
2019-01-30T22:15:41.349Z,18.50
2019-01-30T22:18:11.982Z,18.27
2019-01-30T22:20:40.494Z,19.87
2019-01-30T22:23:09.212Z,17.83
2019-01-30T22:25:38.140Z,20.40
2019-01-30T22:28:06.624Z,18.77
2019-01-30T22:30:35.747Z,19.90
2019-01-30T22:33:04.642Z,19.30
2019-01-30T22:35:33.088Z,20.57
2019-01-30T22:38:12.132Z,20.20
2019-01-30T22:40:33.437Z,21.57
2019-01-30T22:43:03.821Z,19.87
2019-01-30T22:45:32.367Z,20.70
2019-01-30T22:48:01.010Z,20.23
2019-01-30T22:50:30.040Z,20.47
2019-01-30T22:52:59.643Z,21.27
2019-01-30T22:55:28.116Z,22.73
2019-01-30T22:57:56.884Z,20.70
2019-01-30T23:01:01.396Z,19.87
2019-01-30T23:03:35.807Z,20.93
2019-01-30T23:06:19.264Z,22.80
2019-01-30T23:09:10.894Z,20.80
2019-01-30T23:12:05.141Z,22.73
2019-01-30T23:14:37.428Z,23.30
2019-01-30T23:17:27.173Z,22.47
2019-01-30T23:20:00.678Z,21.73
2019-01-30T23:22:47.574Z,22.00
2019-01-30T23:25:34.198Z,23.33
2019-01-30T23:28:05.760Z,23.47
2019-01-30T23:30:55.846Z,20.97
2019-01-30T23:33:30.531Z,21.77
2019-01-30T23:36:22.912Z,20.40
2019-01-30T23:39:04.665Z,25.70
2019-01-30T23:41:37.114Z,21.37
2019-01-30T23:44:26.898Z,21.67
2019-01-30T23:47:13.753Z,26.87
2019-01-30T23:49:51.953Z,20.87
2019-01-30T23:52:32.459Z,28.00
2019-01-30T23:55:19.139Z,27.50
2019-01-30T23:58:02.816Z,26.63
